createdAt,value
2019-01-31T00:01:16.928Z,5.80
2019-01-31T00:04:36.504Z,6.70
2019-01-31T00:07:33.366Z,6.53
2019-01-31T00:10:31.831Z,5.50
2019-01-31T00:13:51.408Z,7.77
2019-01-31T00:17:07.829Z,7.07
2019-01-31T00:19:46.512Z,7.20
2019-01-31T00:22:38.304Z,6.23
2019-01-31T00:25:22.132Z,6.90
2019-01-31T00:28:21.967Z,6.47
2019-01-31T00:31:14.296Z,4.97
2019-01-31T00:34:12.596Z,6.47
2019-01-31T00:37:07.137Z,6.17
2019-01-31T00:40:17.438Z,5.77
2019-01-31T00:43:17.102Z,6.07
2019-01-31T00:45:59.649Z,6.57
2019-01-31T00:48:54.384Z,5.63
2019-01-31T00:51:45.142Z,7.63
2019-01-31T00:54:40.274Z,5.00
2019-01-31T00:57:33.846Z,6.73
2019-01-31T01:00:44.317Z,4.63
2019-01-31T01:04:06.653Z,5.67
2019-01-31T01:06:59.080Z,8.03
2019-01-31T01:10:27.797Z,4.43
2019-01-31T01:13:30.925Z,6.40
2019-01-31T01:16:31.329Z,5.03
2019-01-31T01:19:31.030Z,4.27
2019-01-31T01:22:16.081Z,6.07
2019-01-31T01:24:57.306Z,5.70
2019-01-31T01:28:07.130Z,5.90
2019-01-31T01:31:13.501Z,4.07
2019-01-31T01:34:19.733Z,5.33
2019-01-31T01:37:00.049Z,6.27
2019-01-31T01:40:06.114Z,4.90
2019-01-31T01:42:52.905Z,3.70
2019-01-31T01:46:03.857Z,4.20
2019-01-31T01:48:39.038Z,6.10
2019-01-31T01:51:48.334Z,4.67
2019-01-31T01:54:51.860Z,6.20
2019-01-31T01:58:18.042Z,5.33
2019-01-31T02:01:37.530Z,4.87
2019-01-31T02:04:31.036Z,4.73
2019-01-31T02:07:26.318Z,5.10
2019-01-31T02:10:37.645Z,5.10
2019-01-31T02:13:26.790Z,5.97
2019-01-31T02:16:14.955Z,4.23
2019-01-31T02:19:08.657Z,3.70
2019-01-31T02:21:57.330Z,6.73
2019-01-31T02:24:40.268Z,4.87
2019-01-31T02:27:56.136Z,3.80
2019-01-31T02:31:18.571Z,7.47
2019-01-31T02:34:24.657Z,5.37
2019-01-31T02:37:22.837Z,4.57
2019-01-31T02:40:31.825Z,6.47
2019-01-31T02:43:19.341Z,3.10
2019-01-31T02:46:24.582Z,4.03
2019-01-31T02:49:02.525Z,4.30
2019-01-31T02:52:00.851Z,4.27
2019-01-31T02:55:09.555Z,3.77
2019-01-31T02:58:19.113Z,3.80
2019-01-31T03:01:30.022Z,3.77
2019-01-31T03:04:32.578Z,4.27
2019-01-31T03:07:38.358Z,3.00
2019-01-31T03:10:39.063Z,4.17
2019-01-31T03:14:10.537Z,4.23
2019-01-31T03:17:36.230Z,5.80
2019-01-31T03:21:04.777Z,4.97
2019-01-31T03:24:33.633Z,3.60
2019-01-31T03:27:24.424Z,4.47
2019-01-31T03:30:29.771Z,3.57
2019-01-31T03:33:33.859Z,4.53
2019-01-31T03:37:02.563Z,3.80
2019-01-31T03:39:39.684Z,2.50
2019-01-31T03:42:41.664Z,3.63
2019-01-31T03:45:42.966Z,2.87
2019-01-31T03:48:27.200Z,3.83
2019-01-31T03:51:09.162Z,3.40
2019-01-31T03:54:18.260Z,5.30
2019-01-31T03:57:23.634Z,3.70
2019-01-31T04:00:33.943Z,3.63
2019-01-31T04:03:28.578Z,3.10
2019-01-31T04:06:05.761Z,3.20
2019-01-31T04:08:35.037Z,2.90
2019-01-31T04:11:04.190Z,3.53
2019-01-31T04:13:33.431Z,3.97
2019-01-31T04:16:02.563Z,4.47
2019-01-31T04:18:31.793Z,3.40
2019-01-31T04:21:01.045Z,3.90
2019-01-31T04:23:30.240Z,2.90
2019-01-31T04:25:59.470Z,3.77
2019-01-31T04:28:30.685Z,4.50
2019-01-31T04:30:59.580Z,2.60
2019-01-31T04:33:28.771Z,5.20
2019-01-31T04:35:57.965Z,4.13
2019-01-31T04:38:27.156Z,2.43
2019-01-31T04:40:56.354Z,4.13
2019-01-31T04:43:25.880Z,3.67
2019-01-31T04:45:55.088Z,2.73
2019-01-31T04:48:24.249Z,3.07
2019-01-31T04:50:53.463Z,2.40
2019-01-31T04:53:22.635Z,3.73
2019-01-31T04:55:51.853Z,2.30
2019-01-31T04:58:21.110Z,4.27
2019-01-31T05:00:50.281Z,8.60
2019-01-31T05:03:19.459Z,10.50
2019-01-31T05:05:48.674Z,4.20
2019-01-31T05:08:17.897Z,5.57
2019-01-31T05:10:47.098Z,6.30
2019-01-31T05:13:16.366Z,7.77
2019-01-31T05:15:53.297Z,5.83
2019-01-31T05:18:22.538Z,4.23
2019-01-31T05:20:51.783Z,7.10
2019-01-31T05:23:23.198Z,3.70
2019-01-31T05:25:52.362Z,5.77
2019-01-31T05:28:21.568Z,2.97
2019-01-31T05:30:50.809Z,2.40
2019-01-31T05:33:20.011Z,3.37
2019-01-31T05:35:56.938Z,4.87
2019-01-31T05:38:26.098Z,5.30
2019-01-31T05:40:56.063Z,7.37
2019-01-31T05:43:25.325Z,5.60
2019-01-31T05:45:54.514Z,3.77
2019-01-31T05:48:23.729Z,6.47
2019-01-31T05:50:52.826Z,5.67
2019-01-31T05:53:22.301Z,5.73
2019-01-31T05:55:51.502Z,7.13
2019-01-31T05:58:20.694Z,4.67
2019-01-31T06:00:50.408Z,4.73
2019-01-31T06:03:19.612Z,5.03
2019-01-31T06:05:48.819Z,6.80
2019-01-31T06:08:18.036Z,5.43
2019-01-31T06:10:47.252Z,6.87
2019-01-31T06:13:16.486Z,7.53
2019-01-31T06:15:45.771Z,5.63
2019-01-31T06:18:15.184Z,7.37
2019-01-31T06:20:44.397Z,7.30
2019-01-31T06:23:13.612Z,6.17
2019-01-31T06:25:43.110Z,5.80
2019-01-31T06:28:13.015Z,6.40
2019-01-31T06:30:42.535Z,8.53
2019-01-31T06:33:12.033Z,8.03
2019-01-31T06:35:42.386Z,5.00
2019-01-31T06:38:11.604Z,9.73
2019-01-31T06:40:40.806Z,8.83
2019-01-31T06:43:12.068Z,13.90
2019-01-31T06:45:40.831Z,7.53
2019-01-31T06:48:10.051Z,12.27
2019-01-31T06:50:39.259Z,10.80
2019-01-31T06:53:08.506Z,14.03
2019-01-31T06:55:37.678Z,13.20
2019-01-31T06:58:06.865Z,43.50
2019-01-31T07:00:36.073Z,23.30
2019-01-31T07:03:05.261Z,20.47
2019-01-31T07:05:34.467Z,13.23
2019-01-31T07:08:04.793Z,19.27
2019-01-31T07:10:34.388Z,15.03
2019-01-31T07:13:03.603Z,17.77
2019-01-31T07:15:32.765Z,14.93
2019-01-31T07:18:01.999Z,16.07
2019-01-31T07:20:31.226Z,11.73
2019-01-31T07:23:00.417Z,20.63
2019-01-31T07:25:29.683Z,18.93
2019-01-31T07:27:58.870Z,18.80
2019-01-31T07:30:28.077Z,17.80
2019-01-31T07:32:57.245Z,19.33
2019-01-31T07:35:26.369Z,19.93
2019-01-31T07:37:55.642Z,21.20
2019-01-31T07:40:24.738Z,17.17
2019-01-31T07:42:53.994Z,20.87
2019-01-31T07:45:27.989Z,13.47
2019-01-31T07:47:57.193Z,15.57
2019-01-31T07:50:26.409Z,20.07
2019-01-31T07:52:55.598Z,17.13
2019-01-31T07:55:24.826Z,17.50
2019-01-31T07:57:54.037Z,19.33
2019-01-31T08:00:23.405Z,15.30
2019-01-31T08:02:52.621Z,17.87
2019-01-31T08:05:22.363Z,14.77
2019-01-31T08:07:52.649Z,14.77
2019-01-31T08:10:24.679Z,17.00
2019-01-31T08:12:53.897Z,15.87
2019-01-31T08:15:23.127Z,16.47
2019-01-31T08:17:52.290Z,14.60
2019-01-31T08:20:21.524Z,14.77
2019-01-31T08:22:50.755Z,14.73
2019-01-31T08:25:20.564Z,16.23
2019-01-31T08:27:49.827Z,13.80
2019-01-31T08:30:24.414Z,17.47
2019-01-31T08:32:53.614Z,14.23
2019-01-31T08:35:22.834Z,12.90
2019-01-31T08:37:52.017Z,14.57
2019-01-31T08:40:21.212Z,16.07
2019-01-31T08:42:50.465Z,12.23
2019-01-31T08:45:20.270Z,15.80
2019-01-31T08:47:49.769Z,15.40
2019-01-31T08:50:23.458Z,11.93
2019-01-31T08:52:52.654Z,13.50
2019-01-31T08:55:21.859Z,13.60
2019-01-31T08:57:51.078Z,11.57
2019-01-31T09:00:25.238Z,11.17
2019-01-31T09:02:54.513Z,11.43
2019-01-31T09:05:23.693Z,10.03
2019-01-31T09:07:52.937Z,12.57
2019-01-31T09:10:24.490Z,10.63
2019-01-31T09:12:53.601Z,12.70
2019-01-31T09:15:24.105Z,13.27
2019-01-31T09:17:53.356Z,12.93
2019-01-31T09:20:25.657Z,11.53
2019-01-31T09:23:34.851Z,12.97
2019-01-31T09:26:34.895Z,12.70
2019-01-31T09:29:32.228Z,13.07
2019-01-31T09:32:55.363Z,10.90
2019-01-31T09:36:04.250Z,10.87
2019-01-31T09:39:20.986Z,11.40
2019-01-31T09:41:59.669Z,12.47
2019-01-31T09:44:54.465Z,10.77
2019-01-31T09:47:59.947Z,10.90
2019-01-31T09:50:48.145Z,10.13
2019-01-31T09:53:58.497Z,9.37
2019-01-31T09:57:13.554Z,12.13
2019-01-31T10:00:10.961Z,11.90
2019-01-31T10:03:36.229Z,11.37
2019-01-31T10:06:48.539Z,10.50
2019-01-31T10:09:54.870Z,12.27
2019-01-31T10:12:38.632Z,9.57
2019-01-31T10:15:30.834Z,9.33
2019-01-31T10:18:35.412Z,10.83
2019-01-31T10:21:16.570Z,8.37
2019-01-31T10:24:21.029Z,7.93
2019-01-31T10:27:25.569Z,8.70
2019-01-31T10:30:21.646Z,8.77
2019-01-31T10:33:26.434Z,8.33
2019-01-31T10:36:40.023Z,9.10
2019-01-31T10:39:37.618Z,8.33
2019-01-31T10:42:49.410Z,7.17
2019-01-31T10:45:47.370Z,8.73
2019-01-31T10:48:34.552Z,7.80
2019-01-31T10:51:39.766Z,8.03
2019-01-31T10:54:40.256Z,8.17
2019-01-31T10:57:43.785Z,9.13
2019-01-31T11:01:06.299Z,8.07
2019-01-31T11:04:11.437Z,8.80
2019-01-31T11:07:16.197Z,6.47
2019-01-31T11:09:53.615Z,6.47
2019-01-31T11:13:15.932Z,8.70
2019-01-31T11:16:06.136Z,6.73
2019-01-31T11:19:18.233Z,8.13
2019-01-31T11:22:31.224Z,7.67
2019-01-31T11:25:28.204Z,7.50
2019-01-31T11:28:27.139Z,8.37
2019-01-31T11:31:10.156Z,5.67
2019-01-31T11:34:32.413Z,6.53
2019-01-31T11:37:25.578Z,6.53
2019-01-31T11:40:22.210Z,6.83
2019-01-31T11:43:44.674Z,6.53
2019-01-31T11:46:26.938Z,6.33
2019-01-31T11:49:05.437Z,6.87
2019-01-31T11:52:04.458Z,6.13
2019-01-31T11:54:59.877Z,6.57
2019-01-31T11:57:48.391Z,6.47
2019-01-31T12:00:20.026Z,6.40
2019-01-31T12:02:55.121Z,6.07
2019-01-31T12:05:20.239Z,6.03
2019-01-31T12:07:49.498Z,6.73
2019-01-31T12:10:18.725Z,6.03
2019-01-31T12:12:47.863Z,6.57
2019-01-31T12:15:17.085Z,7.00
2019-01-31T12:17:46.292Z,6.57
2019-01-31T12:20:15.842Z,6.47
2019-01-31T12:22:45.132Z,5.80
2019-01-31T12:25:14.450Z,4.97
2019-01-31T12:27:43.671Z,7.73
2019-01-31T12:30:17.068Z,4.67
2019-01-31T12:32:46.303Z,6.20
2019-01-31T12:35:15.557Z,6.33
2019-01-31T12:37:44.754Z,5.07
2019-01-31T12:40:15.983Z,5.83
2019-01-31T12:42:45.226Z,5.87
2019-01-31T12:45:16.190Z,5.67
2019-01-31T12:47:45.310Z,5.93
2019-01-31T12:50:20.633Z,6.30
2019-01-31T12:52:49.825Z,4.43
2019-01-31T12:55:19.018Z,5.10
2019-01-31T12:57:48.245Z,4.80
2019-01-31T13:00:22.838Z,4.97
2019-01-31T13:02:52.066Z,5.47
2019-01-31T13:05:21.654Z,4.97
2019-01-31T13:07:50.882Z,5.50
2019-01-31T13:10:20.126Z,4.47
2019-01-31T13:12:49.423Z,5.57
2019-01-31T13:15:18.745Z,4.00
2019-01-31T13:17:47.965Z,3.83
2019-01-31T13:20:19.172Z,6.30
2019-01-31T13:22:48.930Z,4.50
2019-01-31T13:25:18.168Z,4.47
2019-01-31T13:27:47.428Z,4.73
2019-01-31T13:30:18.571Z,5.73
2019-01-31T13:32:47.829Z,4.33
2019-01-31T13:35:17.043Z,3.83
2019-01-31T13:37:46.224Z,5.00
2019-01-31T13:40:17.753Z,4.30
2019-01-31T13:42:47.088Z,4.53
2019-01-31T13:45:18.423Z,3.23
2019-01-31T13:47:47.658Z,5.23
2019-01-31T13:50:17.201Z,4.67
2019-01-31T13:52:46.421Z,6.53
2019-01-31T13:55:21.420Z,4.40
2019-01-31T13:57:50.658Z,4.73
2019-01-31T14:00:20.166Z,3.93
2019-01-31T14:02:49.465Z,4.13
2019-01-31T14:05:18.692Z,4.47
2019-01-31T14:07:48.137Z,4.43
2019-01-31T14:10:19.738Z,4.73
2019-01-31T14:12:49.246Z,6.43
2019-01-31T14:15:32.561Z,4.13
2019-01-31T14:17:52.123Z,3.57
2019-01-31T14:20:23.715Z,5.10
2019-01-31T14:22:53.029Z,4.30
2019-01-31T14:25:22.327Z,3.80
2019-01-31T14:27:51.899Z,4.37
2019-01-31T14:30:24.155Z,4.10
2019-01-31T14:32:53.688Z,3.77
2019-01-31T14:35:23.060Z,2.93
2019-01-31T14:37:52.294Z,4.10
2019-01-31T14:40:21.859Z,4.90
2019-01-31T14:42:51.284Z,4.63
2019-01-31T14:45:20.502Z,4.40
2019-01-31T14:47:49.937Z,3.57
2019-01-31T14:50:27.675Z,3.57
2019-01-31T14:52:57.120Z,3.90
2019-01-31T14:55:26.438Z,3.73
2019-01-31T14:57:56.121Z,3.30
2019-01-31T15:00:27.669Z,5.23
2019-01-31T15:02:57.254Z,4.93
2019-01-31T15:05:26.775Z,5.20
2019-01-31T15:07:56.591Z,4.33
2019-01-31T15:10:27.731Z,5.07
2019-01-31T15:12:57.345Z,4.23
2019-01-31T15:15:28.508Z,3.77
2019-01-31T15:17:59.120Z,5.30
2019-01-31T15:20:37.605Z,6.37
2019-01-31T15:23:02.627Z,4.27
2019-01-31T15:25:32.230Z,3.03
2019-01-31T15:28:01.838Z,8.27
2019-01-31T15:30:33.082Z,3.60
2019-01-31T15:33:03.586Z,3.10
2019-01-31T15:35:33.219Z,4.40
2019-01-31T15:38:05.555Z,4.47
2019-01-31T15:40:37.598Z,4.60
2019-01-31T15:43:07.255Z,3.10
2019-01-31T15:45:36.814Z,4.33
2019-01-31T15:48:06.949Z,4.33
2019-01-31T15:50:36.715Z,4.97
2019-01-31T15:53:06.427Z,7.37
2019-01-31T15:55:36.155Z,7.07
2019-01-31T15:58:08.153Z,4.10
2019-01-31T16:00:42.836Z,6.37
2019-01-31T16:03:20.423Z,3.57
2019-01-31T16:05:50.488Z,4.40
2019-01-31T16:08:25.834Z,4.27
2019-01-31T16:10:56.739Z,5.33
2019-01-31T16:13:29.430Z,4.03
2019-01-31T16:15:59.140Z,4.13
2019-01-31T16:18:29.392Z,7.10
2019-01-31T16:20:59.207Z,5.83
2019-01-31T16:23:28.887Z,4.07
2019-01-31T16:25:58.574Z,3.83
2019-01-31T16:28:31.378Z,7.57
2019-01-31T16:31:01.009Z,4.70
2019-01-31T16:33:30.688Z,4.50
2019-01-31T16:36:00.530Z,6.00
2019-01-31T16:38:31.113Z,5.63
2019-01-31T16:41:00.747Z,5.20
2019-01-31T16:43:30.540Z,6.27
2019-01-31T16:46:00.091Z,4.50
2019-01-31T16:48:29.742Z,3.93
2019-01-31T16:51:00.615Z,3.87
2019-01-31T16:53:30.466Z,4.63
2019-01-31T16:56:00.187Z,4.83
2019-01-31T16:58:29.774Z,6.13
2019-01-31T17:00:59.410Z,15.03
2019-01-31T17:03:29.060Z,12.67
2019-01-31T17:05:58.613Z,14.87
2019-01-31T17:08:28.372Z,8.67
2019-01-31T17:10:57.964Z,9.93
2019-01-31T17:13:28.614Z,9.60
2019-01-31T17:15:58.623Z,13.63
2019-01-31T17:18:28.185Z,14.53
2019-01-31T17:20:57.816Z,11.80
2019-01-31T17:23:28.030Z,10.83
2019-01-31T17:25:57.689Z,12.20
2019-01-31T17:28:27.572Z,8.33
2019-01-31T17:30:57.122Z,10.30
2019-01-31T17:33:26.849Z,8.00
2019-01-31T17:35:56.850Z,9.30
2019-01-31T17:38:26.727Z,7.27
2019-01-31T17:40:56.358Z,8.90
2019-01-31T17:43:26.045Z,10.57
2019-01-31T17:45:56.388Z,9.90
2019-01-31T17:48:26.090Z,6.70
2019-01-31T17:50:55.689Z,8.00
2019-01-31T17:53:25.750Z,12.47
2019-01-31T17:55:55.456Z,10.33
2019-01-31T17:58:25.190Z,7.37
2019-01-31T18:00:57.330Z,8.30
2019-01-31T18:03:27.991Z,10.70
2019-01-31T18:05:58.385Z,11.43
2019-01-31T18:08:28.090Z,8.33
2019-01-31T18:10:57.790Z,6.60
2019-01-31T18:13:27.655Z,6.47
2019-01-31T18:15:57.269Z,11.07
2019-01-31T18:18:26.919Z,7.53
2019-01-31T18:20:56.553Z,7.90
2019-01-31T18:23:27.767Z,8.30
2019-01-31T18:25:57.845Z,8.50
2019-01-31T18:28:30.006Z,9.00
2019-01-31T18:30:59.632Z,4.73
2019-01-31T18:33:30.802Z,6.83
2019-01-31T18:36:00.467Z,9.13
2019-01-31T18:38:32.844Z,5.47
2019-01-31T18:41:05.532Z,4.73
2019-01-31T18:43:35.263Z,5.23
2019-01-31T18:46:05.071Z,5.97
2019-01-31T18:48:34.778Z,5.23
2019-01-31T18:51:04.372Z,6.07
2019-01-31T18:53:34.344Z,6.13
2019-01-31T18:56:04.257Z,5.47
2019-01-31T18:58:34.039Z,5.43
2019-01-31T19:01:05.678Z,6.70
2019-01-31T19:03:35.850Z,5.60
2019-01-31T19:06:08.477Z,5.40
2019-01-31T19:08:41.141Z,13.03
2019-01-31T19:11:13.966Z,26.00
2019-01-31T19:13:46.214Z,22.10
2019-01-31T19:16:15.885Z,11.87
2019-01-31T19:18:45.559Z,9.27
2019-01-31T19:21:16.684Z,16.90
2019-01-31T19:23:46.488Z,8.03
2019-01-31T19:26:17.623Z,11.47
2019-01-31T19:28:47.693Z,11.43
2019-01-31T19:31:18.799Z,10.37
2019-01-31T19:33:51.677Z,8.10
2019-01-31T19:36:20.957Z,7.47
2019-01-31T19:38:50.925Z,7.00
2019-01-31T19:41:20.640Z,7.80
2019-01-31T19:43:51.635Z,6.77
2019-01-31T19:46:26.744Z,8.63
2019-01-31T19:48:59.732Z,9.33
2019-01-31T19:51:32.216Z,10.67
2019-01-31T19:54:02.566Z,5.63
2019-01-31T19:56:32.382Z,8.50
2019-01-31T19:59:06.698Z,9.37
2019-01-31T20:01:36.714Z,7.80
2019-01-31T20:04:09.544Z,14.63
2019-01-31T20:06:39.324Z,11.93
2019-01-31T20:09:21.051Z,14.40
2019-01-31T20:11:53.294Z,8.70
2019-01-31T20:14:23.120Z,9.13
2019-01-31T20:16:54.053Z,8.60
2019-01-31T20:19:23.681Z,8.07
2019-01-31T20:21:54.483Z,9.97
2019-01-31T20:24:24.372Z,8.60
2019-01-31T20:26:54.060Z,11.43
2019-01-31T20:29:23.716Z,10.87
2019-01-31T20:31:53.413Z,12.07
2019-01-31T20:34:23.129Z,10.27
2019-01-31T20:36:52.855Z,10.90
2019-01-31T20:39:25.016Z,14.67
2019-01-31T20:41:56.361Z,13.90
2019-01-31T20:44:26.507Z,13.90
2019-01-31T20:46:56.143Z,15.20
2019-01-31T20:49:25.923Z,16.93
2019-01-31T20:51:55.545Z,13.53
2019-01-31T20:54:28.340Z,16.20
2019-01-31T20:56:57.896Z,15.90
2019-01-31T20:59:30.719Z,13.10
2019-01-31T21:02:00.666Z,12.57
2019-01-31T21:04:31.356Z,16.00
2019-01-31T21:07:01.147Z,17.00
2019-01-31T21:09:30.768Z,15.17
2019-01-31T21:12:00.397Z,20.20
2019-01-31T21:14:30.484Z,15.83
2019-01-31T21:17:00.279Z,18.53
2019-01-31T21:19:30.748Z,15.33
2019-01-31T21:22:00.432Z,15.97
2019-01-31T21:24:31.714Z,17.50
2019-01-31T21:27:01.040Z,17.63
2019-01-31T21:29:30.415Z,15.17
2019-01-31T21:32:04.681Z,14.83
2019-01-31T21:34:33.874Z,18.00
2019-01-31T21:37:04.770Z,17.60
2019-01-31T21:39:33.943Z,24.80
2019-01-31T21:42:03.142Z,27.00
2019-01-31T21:44:32.347Z,26.27
2019-01-31T21:50:35.113Z,21.73
2019-01-31T21:53:39.093Z,22.83
2019-01-31T21:57:14.947Z,30.13
2019-01-31T21:59:46.002Z,28.20
2019-01-31T22:02:15.240Z,23.47
2019-01-31T22:04:44.387Z,27.10
2019-01-31T22:07:13.646Z,26.50
2019-01-31T22:09:42.873Z,20.33
2019-01-31T22:12:12.070Z,23.07
2019-01-31T22:14:41.272Z,24.97
2019-01-31T22:17:14.574Z,27.77
2019-01-31T22:19:41.322Z,25.00
2019-01-31T22:22:10.449Z,26.77
2019-01-31T22:24:39.647Z,19.97
2019-01-31T22:27:08.851Z,20.37
2019-01-31T22:29:38.057Z,19.30
2019-01-31T22:32:07.254Z,24.00
2019-01-31T22:34:36.615Z,25.50
2019-01-31T22:37:05.790Z,20.07
2019-01-31T22:39:35.022Z,21.23
2019-01-31T22:42:04.240Z,23.50
2019-01-31T22:44:33.463Z,20.33
2019-01-31T22:47:02.647Z,22.83
2019-01-31T22:49:31.881Z,23.30
2019-01-31T22:52:01.074Z,21.40
2019-01-31T22:54:30.301Z,23.20
2019-01-31T22:56:59.512Z,23.70
2019-01-31T22:59:28.694Z,19.93
2019-01-31T23:02:01.433Z,21.53
2019-01-31T23:04:30.631Z,18.33
2019-01-31T23:07:00.178Z,18.87
2019-01-31T23:09:29.386Z,22.70
2019-01-31T23:11:58.545Z,21.67
2019-01-31T23:14:27.657Z,20.60
2019-01-31T23:16:56.948Z,19.27
2019-01-31T23:19:26.137Z,17.30
2019-01-31T23:21:55.311Z,32.10
2019-01-31T23:24:24.526Z,22.37
2019-01-31T23:26:53.702Z,20.30
2019-01-31T23:29:22.915Z,17.20
2019-01-31T23:31:52.082Z,19.43
2019-01-31T23:34:21.196Z,16.30
2019-01-31T23:36:50.410Z,18.43
2019-01-31T23:39:19.586Z,18.30
2019-01-31T23:41:48.762Z,21.03
2019-01-31T23:44:17.983Z,19.50
2019-01-31T23:46:47.173Z,17.47
2019-01-31T23:49:16.377Z,19.23
2019-01-31T23:51:45.546Z,16.73
2019-01-31T23:54:14.740Z,20.67
2019-01-31T23:56:43.953Z,18.13
2019-01-31T23:59:13.181Z,14.80
